Yueyangdongyu16005 — 0016005 — position and weather

sailwx.info

Track history (hours):
 
Tides and Currents Weather Stations Pressure Air Temp Water Temp Dewpoint Dewpoint Depression Visibility Wind Speed Wind Dir Waves Ship Positions

Yueyangdongyu16005

Last reported at 2015-Jan-05 02:13 UTC. Time now 2015-Jan-27 21:00 UTC.
Position N 22°02' E 113°49'.
Warning: this ship's position is 22 days out of date.

Length 33 m.

Type: Fishing. MMSI: 412476783.

Date/timePositionNaut miles runAvg speedWind from/ knotsBaromVisibWave heightAir tempDewpointWater temp
2015-Jan-05 02:13N 22°02' E 113°49'5 7.2
2015-Jan-05 01:30N 22°06' E 113°46'7 6.7
2015-Jan-05 00:31N 22°12' E 113°42'6 6.5
2015-Jan-04 23:32N 22°17' E 113°37'2 2.0
2015-Jan-04 22:28N 22°17' E 113°35'0 0.0
2015-Jan-04 21:31N 22°17' E 113°35'  
2014-Dec-31 16:30N 22°17' E 113°35'0 0.0
2014-Dec-31 15:10N 22°17' E 113°35'0 0.0
2014-Dec-31 14:28N 22°17' E 113°35'0 0.0
2014-Dec-31 13:22N 22°17' E 113°35'0 0.0
2014-Dec-31 12:28N 22°17' E 113°35'0 0.0
2014-Dec-31 11:22N 22°17' E 113°35'0 0.0
2014-Dec-31 10:30N 22°17' E 113°35'0 0.0
2014-Dec-31 09:18N 22°17' E 113°35'0 0.0
2014-Dec-31 08:24N 22°17' E 113°35'0 0.0
2014-Dec-31 07:33N 22°17' E 113°35'0 0.0
2014-Dec-31 05:32N 22°17' E 113°35'0 0.0
2014-Dec-31 04:32N 22°17' E 113°35'0 0.0
2014-Dec-31 03:23N 22°17' E 113°35'0 0.0
2014-Dec-31 02:32N 22°17' E 113°35'0 0.0
2014-Dec-31 00:32N 22°17' E 113°35'0 0.0
2014-Dec-30 22:30N 22°17' E 113°35'0 0.0
2014-Dec-30 21:16N 22°17' E 113°35'2 2.3
2014-Dec-30 20:33N 22°17' E 113°36'7 7.2
2014-Dec-30 19:33N 22°10' E 113°39'8 7.4
2014-Dec-30 18:31N 22°03' E 113°37'  
Track history (hours):
 
Tides and Currents Weather Stations Pressure Air Temp Water Temp Dewpoint Dewpoint Depression Visibility Wind Speed Wind Dir Waves Ship Positions

Yueyangdongyu16005

Last reported at 2015-Jan-05 02:13 UTC. Time now 2015-Jan-27 21:00 UTC.
Position N 22°02' E 113°49'.
Warning: this ship's position is 22 days out of date.

Length 33 m.

Type: Fishing. MMSI: 412476783.

Date/timePositionNaut miles runAvg speedWind from/ knotsBaromVisibWave heightAir tempDewpointWater temp
2015-Jan-05 02:13N 22°02' E 113°49'5 7.2
2015-Jan-05 01:30N 22°06' E 113°46'7 6.7
2015-Jan-05 00:31N 22°12' E 113°42'6 6.5
2015-Jan-04 23:32N 22°17' E 113°37'2 2.0
2015-Jan-04 22:28N 22°17' E 113°35'0 0.0
2015-Jan-04 21:31N 22°17' E 113°35'  
2014-Dec-31 16:30N 22°17' E 113°35'0 0.0
2014-Dec-31 15:10N 22°17' E 113°35'0 0.0
2014-Dec-31 14:28N 22°17' E 113°35'0 0.0
2014-Dec-31 13:22N 22°17' E 113°35'0 0.0
2014-Dec-31 12:28N 22°17' E 113°35'0 0.0
2014-Dec-31 11:22N 22°17' E 113°35'0 0.0
2014-Dec-31 10:30N 22°17' E 113°35'0 0.0
2014-Dec-31 09:18N 22°17' E 113°35'0 0.0
2014-Dec-31 08:24N 22°17' E 113°35'0 0.0
2014-Dec-31 07:33N 22°17' E 113°35'0 0.0
2014-Dec-31 05:32N 22°17' E 113°35'0 0.0
2014-Dec-31 04:32N 22°17' E 113°35'0 0.0
2014-Dec-31 03:23N 22°17' E 113°35'0 0.0
2014-Dec-31 02:32N 22°17' E 113°35'0 0.0
2014-Dec-31 00:32N 22°17' E 113°35'0 0.0
2014-Dec-30 22:30N 22°17' E 113°35'0 0.0
2014-Dec-30 21:16N 22°17' E 113°35'2 2.3
2014-Dec-30 20:33N 22°17' E 113°36'7 7.2
2014-Dec-30 19:33N 22°10' E 113°39'8 7.4
2014-Dec-30 18:31N 22°03' E 113°37'  

Dump ship's entire track history